createdAt,value
2018-10-21T00:02:17.426Z,21.47
2018-10-21T00:04:46.700Z,19.87
2018-10-21T00:07:16.108Z,21.17
2018-10-21T00:09:45.442Z,18.10
2018-10-21T00:12:14.826Z,18.97
2018-10-21T00:14:44.249Z,17.70
2018-10-21T00:17:15.703Z,19.03
2018-10-21T00:19:45.137Z,18.43
2018-10-21T00:22:14.676Z,17.67
2018-10-21T00:24:44.157Z,18.97
2018-10-21T00:27:17.676Z,20.37
2018-10-21T00:29:47.148Z,23.80
2018-10-21T00:32:16.836Z,19.47
2018-10-21T00:34:46.146Z,21.77
2018-10-21T00:37:15.514Z,24.07
2018-10-21T00:39:44.844Z,28.90
2018-10-21T00:42:16.389Z,20.60
2018-10-21T00:44:45.728Z,18.57
2018-10-21T00:47:15.181Z,18.57
2018-10-21T00:49:44.501Z,21.17
2018-10-21T00:52:13.848Z,20.30
2018-10-21T00:54:43.234Z,17.27
2018-10-21T00:57:12.738Z,17.57
2018-10-21T00:59:42.005Z,18.07
2018-10-21T01:02:11.391Z,17.50
2018-10-21T01:04:40.950Z,20.77
2018-10-21T01:07:10.561Z,21.93
2018-10-21T01:09:39.964Z,19.67
2018-10-21T01:12:09.549Z,18.97
2018-10-21T01:14:38.979Z,17.37
2018-10-21T01:17:08.364Z,20.73
2018-10-21T01:19:37.791Z,17.93
2018-10-21T01:22:07.327Z,20.67
2018-10-21T01:24:36.784Z,21.70
2018-10-21T01:27:07.153Z,24.17
2018-10-21T01:29:36.858Z,22.27
2018-10-21T01:32:06.329Z,20.07
2018-10-21T01:34:35.763Z,22.07
2018-10-21T01:37:06.012Z,19.00
2018-10-21T01:40:49.287Z,17.90
2018-10-21T01:43:20.937Z,20.33
2018-10-21T01:45:50.401Z,18.90
2018-10-21T01:48:20.755Z,23.70
2018-10-21T01:50:50.032Z,19.63
2018-10-21T01:53:19.908Z,22.30
2018-10-21T01:55:49.392Z,20.33
2018-10-21T01:58:18.919Z,24.57
2018-10-21T02:00:48.276Z,20.53
2018-10-21T02:03:17.734Z,17.80
2018-10-21T02:05:47.879Z,18.53
2018-10-21T02:08:17.262Z,18.60
2018-10-21T02:10:46.629Z,20.20
2018-10-21T02:13:16.040Z,20.73
2018-10-21T02:15:45.611Z,20.03
2018-10-21T02:18:14.984Z,17.10
2018-10-21T02:20:44.361Z,17.30
2018-10-21T02:23:13.709Z,19.47
2018-10-21T02:25:43.061Z,19.37
2018-10-21T02:28:12.650Z,15.77
2018-10-21T02:30:42.051Z,17.87
2018-10-21T02:33:11.827Z,17.00
2018-10-21T02:35:41.051Z,17.90
2018-10-21T02:38:10.379Z,15.70
2018-10-21T02:41:53.405Z,18.67
2018-10-21T02:44:23.190Z,20.93
2018-10-21T02:46:53.658Z,19.37
2018-10-21T02:49:23.482Z,17.17
2018-10-21T02:51:58.006Z,20.57
2018-10-21T02:54:30.466Z,16.07
2018-10-21T02:56:59.976Z,17.53
2018-10-21T02:59:29.255Z,21.63
2018-10-21T03:01:58.607Z,20.33
2018-10-21T03:04:27.921Z,20.70
2018-10-21T03:06:57.298Z,24.57
2018-10-21T03:09:28.522Z,18.43
2018-10-21T03:11:57.891Z,19.43
2018-10-21T03:14:27.178Z,18.57
2018-10-21T03:16:56.617Z,15.17
2018-10-21T03:19:26.231Z,14.53
2018-10-21T03:21:55.564Z,15.20
2018-10-21T03:24:25.002Z,16.53
2018-10-21T03:26:54.425Z,18.53
2018-10-21T03:29:23.991Z,16.77
2018-10-21T03:31:53.782Z,22.27
2018-10-21T03:34:23.185Z,18.13
2018-10-21T03:36:52.609Z,17.90
2018-10-21T03:39:24.086Z,20.43
2018-10-21T03:41:53.507Z,22.63
2018-10-21T03:44:22.846Z,21.10
2018-10-21T03:46:52.278Z,20.20
2018-10-21T03:49:21.662Z,17.93
2018-10-21T03:51:50.985Z,19.97
2018-10-21T03:54:20.412Z,19.87
2018-10-21T03:56:50.036Z,18.70
2018-10-21T03:59:19.300Z,22.80
2018-10-21T04:01:48.710Z,22.67
2018-10-21T04:04:19.457Z,20.00
2018-10-21T04:06:48.921Z,17.10
2018-10-21T04:09:18.261Z,18.20
2018-10-21T04:11:47.870Z,17.30
2018-10-21T04:14:17.274Z,19.83
2018-10-21T04:16:46.630Z,18.63
2018-10-21T04:19:16.053Z,16.13
2018-10-21T04:21:45.380Z,19.63
2018-10-21T04:24:14.773Z,21.13
2018-10-21T04:26:44.172Z,18.37
2018-10-21T04:29:13.521Z,16.90
2018-10-21T04:31:42.897Z,21.03
2018-10-21T04:34:12.388Z,18.50
2018-10-21T04:36:41.829Z,18.60
2018-10-21T04:39:28.042Z,19.17
2018-10-21T04:41:57.453Z,18.60
2018-10-21T04:44:26.827Z,20.23
2018-10-21T04:46:56.878Z,21.37
2018-10-21T04:49:26.128Z,19.57
2018-10-21T04:51:55.504Z,18.07
2018-10-21T04:54:24.856Z,16.20
2018-10-21T04:56:54.237Z,18.07
2018-10-21T04:59:23.590Z,14.77
2018-10-21T05:01:53.320Z,19.03
2018-10-21T05:04:22.579Z,20.37
2018-10-21T05:06:52.042Z,19.03
2018-10-21T05:09:23.195Z,16.83
2018-10-21T05:11:52.832Z,16.93
2018-10-21T05:14:22.155Z,16.63
2018-10-21T05:16:51.574Z,18.13
2018-10-21T05:19:20.982Z,19.13
2018-10-21T05:21:50.731Z,17.43
2018-10-21T05:24:20.115Z,18.00
2018-10-21T05:26:49.759Z,19.27
2018-10-21T05:29:20.170Z,19.37
2018-10-21T05:31:49.503Z,17.33
2018-10-21T05:34:18.882Z,18.63
2018-10-21T05:36:48.204Z,16.47
2018-10-21T05:39:17.593Z,18.33
2018-10-21T05:41:47.001Z,17.23
2018-10-21T05:44:17.436Z,19.00
2018-10-21T05:46:48.179Z,18.20
2018-10-21T05:49:17.610Z,18.63
2018-10-21T05:51:48.263Z,20.13
2018-10-21T05:54:18.457Z,21.57
2018-10-21T05:56:49.186Z,22.10
2018-10-21T05:59:18.982Z,22.70
2018-10-21T06:01:48.820Z,19.90
2018-10-21T06:04:18.848Z,22.00
2018-10-21T06:06:48.211Z,20.47
2018-10-21T06:09:18.661Z,21.20
2018-10-21T06:11:48.009Z,24.00
2018-10-21T06:14:17.854Z,24.57
2018-10-21T06:17:09.853Z,23.27
2018-10-21T06:20:15.076Z,25.03
2018-10-21T06:22:46.193Z,28.70
2018-10-21T06:25:15.526Z,23.57
2018-10-21T06:27:44.867Z,23.67
2018-10-21T06:30:18.217Z,23.63
2018-10-21T06:32:47.538Z,24.70
2018-10-21T06:35:16.858Z,25.87
2018-10-21T06:37:46.304Z,22.43
2018-10-21T06:40:15.929Z,22.40
2018-10-21T06:42:45.318Z,21.97
2018-10-21T06:45:14.707Z,25.93
2018-10-21T06:47:44.283Z,25.50
2018-10-21T06:50:18.115Z,24.53
2018-10-21T06:52:47.696Z,23.97
2018-10-21T06:55:17.317Z,26.43
2018-10-21T06:57:47.002Z,23.73
2018-10-21T07:00:16.583Z,24.50
2018-10-21T07:02:45.973Z,23.70
2018-10-21T07:05:32.107Z,24.77
2018-10-21T07:08:03.566Z,24.30
2018-10-21T07:10:33.004Z,23.77
2018-10-21T07:13:02.343Z,27.17
2018-10-21T07:15:31.808Z,23.47
2018-10-21T07:18:01.097Z,21.97
2018-10-21T07:20:30.378Z,23.27
2018-10-21T07:22:59.986Z,23.93
2018-10-21T07:25:29.309Z,22.50
2018-10-21T07:27:58.701Z,25.03
2018-10-21T07:30:28.033Z,22.70
2018-10-21T07:32:57.478Z,22.50
2018-10-21T07:35:26.809Z,24.80
2018-10-21T07:37:56.329Z,24.43
2018-10-21T07:40:25.799Z,23.87
2018-10-21T07:42:55.194Z,24.33
2018-10-21T07:45:24.619Z,25.63
2018-10-21T07:47:53.931Z,26.03
2018-10-21T07:50:23.298Z,29.37
2018-10-21T07:52:52.594Z,28.43
2018-10-21T07:55:21.969Z,25.33
2018-10-21T07:57:51.356Z,29.23
2018-10-21T08:00:20.687Z,26.20
2018-10-21T08:02:50.157Z,26.80
2018-10-21T08:05:36.299Z,24.57
2018-10-21T08:08:19.052Z,24.13
2018-10-21T08:10:48.452Z,27.33
2018-10-21T08:13:19.308Z,25.50
2018-10-21T08:15:48.680Z,29.23
2018-10-21T08:18:19.200Z,26.20
2018-10-21T08:20:49.609Z,27.90
2018-10-21T08:23:19.638Z,26.03
2018-10-21T08:25:50.279Z,26.20
2018-10-21T08:28:19.623Z,24.27
2018-10-21T08:30:48.990Z,23.20
2018-10-21T08:33:18.498Z,22.47
2018-10-21T08:35:47.911Z,27.83
2018-10-21T08:38:17.338Z,25.83
2018-10-21T08:40:46.653Z,24.43
2018-10-21T08:43:17.097Z,28.37
2018-10-21T08:45:46.650Z,26.10
2018-10-21T08:48:16.020Z,31.37
2018-10-21T08:50:45.436Z,28.33
2018-10-21T08:53:14.760Z,27.80
2018-10-21T08:55:44.235Z,32.23
2018-10-21T08:58:13.655Z,28.77
2018-10-21T09:00:42.873Z,28.83
2018-10-21T09:03:12.176Z,31.53
2018-10-21T09:05:41.579Z,40.00
2018-10-21T09:08:10.902Z,37.07
2018-10-21T09:10:40.368Z,38.43
2018-10-21T09:13:09.597Z,41.17
2018-10-21T09:15:38.972Z,41.00
2018-10-21T09:18:08.425Z,42.00
2018-10-21T09:20:37.776Z,40.80
2018-10-21T09:23:07.173Z,43.43
2018-10-21T09:25:36.667Z,40.73
2018-10-21T09:28:06.283Z,40.03
2018-10-21T09:30:40.622Z,37.90
2018-10-21T09:33:10.224Z,41.37
2018-10-21T09:35:39.695Z,39.23
2018-10-21T09:38:09.126Z,41.37
2018-10-21T09:40:38.467Z,39.83
2018-10-21T09:43:07.953Z,36.57
2018-10-21T09:45:37.314Z,35.47
2018-10-21T09:48:07.309Z,40.07
2018-10-21T09:50:37.682Z,40.47
2018-10-21T09:53:07.155Z,39.07
2018-10-21T09:55:36.825Z,38.87
2018-10-21T09:58:06.373Z,38.97
2018-10-21T10:00:40.743Z,36.30
2018-10-21T10:03:10.053Z,37.13
2018-10-21T10:05:39.522Z,39.17
2018-10-21T10:08:08.863Z,43.67
2018-10-21T10:10:38.428Z,36.40
2018-10-21T10:13:09.912Z,37.13
2018-10-21T10:15:39.211Z,38.10
2018-10-21T10:18:08.631Z,37.63
2018-10-21T10:20:38.233Z,36.50
2018-10-21T10:23:07.658Z,39.40
2018-10-21T10:25:37.139Z,43.00
2018-10-21T10:28:07.524Z,40.80
2018-10-21T10:30:37.137Z,40.60
2018-10-21T10:33:09.021Z,37.63
2018-10-21T10:35:38.365Z,40.57
2018-10-21T10:38:07.682Z,40.47
2018-10-21T10:40:36.977Z,38.60
2018-10-21T10:43:06.402Z,37.33
2018-10-21T10:45:35.688Z,40.13
2018-10-21T10:48:06.347Z,31.17
2018-10-21T10:50:35.668Z,34.67
2018-10-21T10:53:05.215Z,36.73
2018-10-21T10:55:39.687Z,35.97
2018-10-21T10:58:09.090Z,35.97
2018-10-21T11:00:38.383Z,35.33
2018-10-21T11:03:07.793Z,32.93
2018-10-21T11:05:37.187Z,34.00
2018-10-21T11:08:06.650Z,33.63
2018-10-21T11:10:35.944Z,31.33
2018-10-21T11:13:05.462Z,32.10
2018-10-21T11:15:35.036Z,31.90
2018-10-21T11:18:04.431Z,29.87
2018-10-21T11:20:33.854Z,28.07
2018-10-21T11:23:03.312Z,30.30
2018-10-21T11:25:32.710Z,30.33
2018-10-21T11:28:02.220Z,28.23
2018-10-21T11:30:31.549Z,26.83
2018-10-21T11:33:00.878Z,30.70
2018-10-21T11:35:30.433Z,30.60
2018-10-21T11:37:59.814Z,28.93
2018-10-21T11:40:29.251Z,26.80
2018-10-21T11:42:58.616Z,31.83
2018-10-21T11:45:28.209Z,30.93
2018-10-21T11:47:57.850Z,26.30
2018-10-21T11:50:27.207Z,26.60
2018-10-21T11:52:56.603Z,27.23
2018-10-21T11:55:26.092Z,26.40
2018-10-21T11:57:55.550Z,28.10
2018-10-21T12:00:24.916Z,27.53
2018-10-21T12:03:03.284Z,26.43
2018-10-21T12:05:32.936Z,24.80
2018-10-21T12:08:02.313Z,21.60
2018-10-21T12:10:31.760Z,23.33
2018-10-21T12:13:01.149Z,18.97
2018-10-21T12:15:30.550Z,12.90
2018-10-21T12:17:59.953Z,14.03
2018-10-21T12:20:30.414Z,14.13
2018-10-21T12:22:59.948Z,11.40
2018-10-21T12:25:29.372Z,11.97
2018-10-21T12:27:58.792Z,11.27
2018-10-21T12:30:28.327Z,12.07
2018-10-21T12:32:57.677Z,8.43
2018-10-21T12:35:27.029Z,9.50
2018-10-21T12:37:56.379Z,11.57
2018-10-21T12:40:25.877Z,8.90
2018-10-21T12:42:55.281Z,8.33
2018-10-21T12:45:26.744Z,10.90
2018-10-21T12:47:56.147Z,9.67
2018-10-21T12:50:25.512Z,8.87
2018-10-21T12:52:55.100Z,7.47
2018-10-21T12:55:24.587Z,9.87
2018-10-21T12:57:54.045Z,10.00
2018-10-21T13:00:23.388Z,10.87
2018-10-21T13:02:52.766Z,11.23
2018-10-21T13:05:22.189Z,10.10
2018-10-21T13:07:51.519Z,12.73
2018-10-21T13:10:20.895Z,11.40
2018-10-21T13:12:50.309Z,10.37
2018-10-21T13:15:19.616Z,11.73
2018-10-21T13:17:48.925Z,10.47
2018-10-21T13:20:18.277Z,11.07
2018-10-21T13:22:47.686Z,10.23
2018-10-21T13:25:17.249Z,11.63
2018-10-21T13:27:46.647Z,8.17
2018-10-21T13:30:16.014Z,8.07
2018-10-21T13:32:45.581Z,10.07
2018-10-21T13:35:15.025Z,9.33
2018-10-21T13:37:44.460Z,9.27
2018-10-21T13:40:13.964Z,10.80
2018-10-21T13:42:43.179Z,10.37
2018-10-21T13:45:12.622Z,11.67
2018-10-21T13:47:42.002Z,11.83
2018-10-21T13:50:11.328Z,8.70
2018-10-21T13:52:40.759Z,12.03
2018-10-21T13:55:10.236Z,11.07
2018-10-21T13:57:39.633Z,13.17
2018-10-21T14:00:09.764Z,12.80
2018-10-21T14:02:39.339Z,8.87
2018-10-21T14:05:09.524Z,9.53
2018-10-21T14:07:39.086Z,12.53
2018-10-21T14:10:08.561Z,11.27
2018-10-21T14:12:37.916Z,13.10
2018-10-21T14:15:07.881Z,11.90
2018-10-21T14:17:37.185Z,12.60
2018-10-21T14:20:08.634Z,9.37
2018-10-21T14:22:37.973Z,9.80
2018-10-21T14:25:07.597Z,11.57
2018-10-21T14:27:36.960Z,11.47
2018-10-21T14:30:09.360Z,9.83
2018-10-21T14:32:40.128Z,8.67
2018-10-21T14:35:11.621Z,10.00
2018-10-21T14:37:41.032Z,9.23
2018-10-21T14:40:12.671Z,9.03
2018-10-21T14:42:42.234Z,8.60
2018-10-21T14:45:13.400Z,7.33
2018-10-21T14:47:42.899Z,7.47
2018-10-21T14:50:12.827Z,10.70
2018-10-21T14:52:42.165Z,8.43
2018-10-21T14:55:11.985Z,10.13
2018-10-21T14:57:41.422Z,9.13
2018-10-21T15:00:12.906Z,11.40
2018-10-21T15:02:42.828Z,9.43
2018-10-21T15:05:13.235Z,7.57
2018-10-21T15:07:44.449Z,8.93
2018-10-21T15:10:14.298Z,10.63
2018-10-21T15:12:43.698Z,6.90
2018-10-21T15:15:13.139Z,6.60
2018-10-21T15:17:42.543Z,7.63
2018-10-21T15:20:13.184Z,7.60
2018-10-21T15:22:42.495Z,11.37
2018-10-21T15:25:12.545Z,8.30
2018-10-21T15:27:42.447Z,7.23
2018-10-21T15:30:14.132Z,5.40
2018-10-21T15:32:43.572Z,7.10
2018-10-21T15:35:12.942Z,8.17
2018-10-21T15:37:42.375Z,8.37
2018-10-21T15:40:12.427Z,8.17
2018-10-21T15:42:41.800Z,9.20
2018-10-21T15:45:12.082Z,8.47
2018-10-21T15:47:41.537Z,7.83
2018-10-21T15:50:11.071Z,7.63
2018-10-21T15:52:40.471Z,10.00
2018-10-21T15:55:10.554Z,8.37
2018-10-21T15:57:39.965Z,7.87
2018-10-21T16:00:12.138Z,7.90
2018-10-21T16:02:42.520Z,9.50
2018-10-21T16:05:12.829Z,12.43
2018-10-21T16:07:42.219Z,8.47
2018-10-21T16:10:11.748Z,12.33
2018-10-21T16:12:41.142Z,8.10
2018-10-21T16:15:14.137Z,8.70
2018-10-21T16:17:44.403Z,12.40
2018-10-21T16:20:13.840Z,9.77
2018-10-21T16:22:44.068Z,12.53
2018-10-21T16:25:14.997Z,12.17
2018-10-21T16:27:44.335Z,10.90
2018-10-21T16:30:17.867Z,11.33
2018-10-21T16:32:47.490Z,8.77
2018-10-21T16:35:17.290Z,11.33
2018-10-21T16:37:46.753Z,10.03
2018-10-21T16:40:17.922Z,10.10
2018-10-21T16:42:47.441Z,7.50
2018-10-21T16:45:16.990Z,8.57
2018-10-21T16:47:46.320Z,8.77
2018-10-21T16:50:17.023Z,10.87
2018-10-21T16:52:47.258Z,12.33
2018-10-21T16:55:17.751Z,11.03
2018-10-21T16:57:47.197Z,10.67
2018-10-21T17:00:18.368Z,11.23
2018-10-21T17:02:47.629Z,15.27
2018-10-21T17:05:17.195Z,12.07
2018-10-21T17:07:46.444Z,7.93
2018-10-21T17:10:16.090Z,11.33
2018-10-21T17:12:45.266Z,11.47
2018-10-21T17:15:14.675Z,7.90
2018-10-21T17:17:44.250Z,14.23
2018-10-21T17:20:15.537Z,12.97
2018-10-21T17:22:45.509Z,12.13
2018-10-21T17:25:15.770Z,9.70
2018-10-21T17:27:45.149Z,10.17
2018-10-21T17:30:16.398Z,8.80
2018-10-21T17:32:46.034Z,15.90
2018-10-21T17:35:15.612Z,12.83
2018-10-21T17:37:44.968Z,10.60
2018-10-21T17:40:14.560Z,12.90
2018-10-21T17:42:43.729Z,12.83
2018-10-21T17:45:14.527Z,10.03
2018-10-21T17:47:43.876Z,10.10
2018-10-21T17:50:14.456Z,13.20
2018-10-21T17:52:44.256Z,16.00
2018-10-21T17:55:13.987Z,14.50
2018-10-21T17:57:43.322Z,14.37
2018-10-21T18:00:13.505Z,15.17
2018-10-21T18:02:42.845Z,14.33
2018-10-21T18:05:13.821Z,13.00
2018-10-21T18:07:43.537Z,12.30
2018-10-21T18:10:13.303Z,13.47
2018-10-21T18:12:42.644Z,12.30
2018-10-21T18:15:13.135Z,13.10
2018-10-21T18:17:43.440Z,13.57
2018-10-21T18:20:13.579Z,12.60
2018-10-21T18:22:43.019Z,16.20
2018-10-21T18:25:12.400Z,14.40
2018-10-21T18:27:42.250Z,15.97
2018-10-21T18:30:12.594Z,13.57
2018-10-21T18:32:42.421Z,14.33
2018-10-21T18:35:13.807Z,18.63
2018-10-21T18:37:43.690Z,15.90
2018-10-21T18:40:13.369Z,19.20
2018-10-21T18:42:42.743Z,18.37
2018-10-21T18:45:15.320Z,24.97
2018-10-21T18:47:45.066Z,21.30
2018-10-21T18:50:15.307Z,21.57
2018-10-21T18:52:45.034Z,18.17
2018-10-21T18:55:14.667Z,18.57
2018-10-21T18:57:44.050Z,19.50
2018-10-21T19:00:19.861Z,21.33
2018-10-21T19:02:49.395Z,19.47
2018-10-21T19:05:18.817Z,19.60
2018-10-21T19:07:48.300Z,25.47
2018-10-21T19:10:17.719Z,22.23
2018-10-21T19:12:59.570Z,24.47
2018-10-21T19:15:18.881Z,20.87
2018-10-21T19:17:48.347Z,23.70
2018-10-21T19:20:18.078Z,26.33
2018-10-21T19:22:47.527Z,19.33
2018-10-21T19:25:18.550Z,20.73
2018-10-21T19:27:47.971Z,20.63
2018-10-21T19:30:17.406Z,20.67
2018-10-21T19:32:47.095Z,18.83
2018-10-21T19:35:17.183Z,22.93
2018-10-21T19:37:46.602Z,17.47
2018-10-21T19:40:16.623Z,18.67
2018-10-21T19:42:46.087Z,17.30
2018-10-21T19:45:16.223Z,16.60
2018-10-21T19:47:45.629Z,18.40
2018-10-21T19:50:16.109Z,16.90
2018-10-21T19:52:45.855Z,21.30
2018-10-21T19:55:15.325Z,21.10
2018-10-21T19:57:45.612Z,20.33
2018-10-21T20:00:16.295Z,18.03
2018-10-21T20:02:46.221Z,18.50
2018-10-21T20:05:15.706Z,16.17
2018-10-21T20:07:45.222Z,17.17
2018-10-21T20:10:16.405Z,18.70
2018-10-21T20:12:45.635Z,19.43
2018-10-21T20:15:15.145Z,16.00
2018-10-21T20:17:44.494Z,19.03
2018-10-21T20:20:14.127Z,16.97
2018-10-21T20:22:43.672Z,12.93
2018-10-21T20:25:13.420Z,14.40
2018-10-21T20:27:44.007Z,14.50
2018-10-21T20:30:14.374Z,14.43
2018-10-21T20:32:44.015Z,15.80
2018-10-21T20:35:13.574Z,15.20
2018-10-21T20:37:43.128Z,14.23
2018-10-21T20:40:12.810Z,15.73
2018-10-21T20:42:42.325Z,31.30
2018-10-21T20:45:13.282Z,17.50
2018-10-21T20:47:42.872Z,16.17
2018-10-21T20:50:12.354Z,16.67
2018-10-21T20:52:43.003Z,15.97
2018-10-21T20:55:12.587Z,16.90
2018-10-21T20:57:42.178Z,14.73
2018-10-21T21:00:11.844Z,16.77
2018-10-21T21:02:41.331Z,14.77
2018-10-21T21:05:10.802Z,12.30
2018-10-21T21:07:40.260Z,13.47
2018-10-21T21:10:10.019Z,15.60
2018-10-21T21:12:39.568Z,14.83
2018-10-21T21:15:09.364Z,18.33
2018-10-21T21:17:38.825Z,22.30
2018-10-21T21:20:09.352Z,18.40
2018-10-21T21:22:38.964Z,14.33
2018-10-21T21:25:08.485Z,13.10
2018-10-21T21:27:37.967Z,14.27
2018-10-21T21:30:08.212Z,13.63
2018-10-21T21:32:37.758Z,13.47
2018-10-21T21:35:08.146Z,15.37
2018-10-21T21:37:38.168Z,14.77
2018-10-21T21:40:09.352Z,15.70
2018-10-21T21:42:39.363Z,14.87
2018-10-21T21:45:09.465Z,14.67
2018-10-21T21:47:39.164Z,14.50
2018-10-21T21:50:09.182Z,16.90
2018-10-21T21:52:38.838Z,13.73
2018-10-21T21:55:08.412Z,13.13
2018-10-21T21:57:38.006Z,15.10
2018-10-21T22:00:12.300Z,12.50
2018-10-21T22:02:41.914Z,15.10
2018-10-21T22:05:11.501Z,15.30
2018-10-21T22:07:41.512Z,13.50
2018-10-21T22:10:13.303Z,12.80
2018-10-21T22:12:43.560Z,12.37
2018-10-21T22:15:13.085Z,11.43
2018-10-21T22:17:42.691Z,13.60
2018-10-21T22:20:13.317Z,12.83
2018-10-21T22:22:43.102Z,14.23
2018-10-21T22:25:12.591Z,11.77
2018-10-21T22:27:42.081Z,10.87
2018-10-21T22:30:12.123Z,11.33
2018-10-21T22:32:41.714Z,13.30
2018-10-21T22:35:11.311Z,10.90
2018-10-21T22:37:40.790Z,9.03
2018-10-21T22:40:10.380Z,11.80
2018-10-21T22:42:39.934Z,10.77
2018-10-21T22:45:10.535Z,14.17
2018-10-21T22:47:40.116Z,9.87
2018-10-21T22:50:11.556Z,12.23
2018-10-21T22:52:41.509Z,12.10
2018-10-21T22:55:11.242Z,12.27
2018-10-21T22:57:40.686Z,11.60
2018-10-21T23:00:10.779Z,11.70
2018-10-21T23:02:40.195Z,12.30
2018-10-21T23:05:10.068Z,12.13
2018-10-21T23:07:40.075Z,12.50
2018-10-21T23:10:09.638Z,11.47
2018-10-21T23:12:39.189Z,12.33
2018-10-21T23:15:08.759Z,13.53
2018-10-21T23:17:38.497Z,11.23
2018-10-21T23:20:08.455Z,13.80
2018-10-21T23:22:38.110Z,15.30
2018-10-21T23:25:08.036Z,15.90
2018-10-21T23:27:37.650Z,13.23
2018-10-21T23:30:08.128Z,14.33
2018-10-21T23:32:37.651Z,15.30
2018-10-21T23:35:08.350Z,14.47
2018-10-21T23:37:37.914Z,13.13
2018-10-21T23:40:08.279Z,12.20
2018-10-21T23:42:37.842Z,15.00
2018-10-21T23:45:07.447Z,12.50
2018-10-21T23:47:38.022Z,15.43
2018-10-21T23:50:08.382Z,13.27
2018-10-21T23:52:37.930Z,13.77
2018-10-21T23:55:07.825Z,15.17
2018-10-21T23:57:37.377Z,10.20
